sensor_id;sensor_type;location;lat;lon;timestamp;P1;durP1;ratioP1;P2;durP2;ratioP2
44588;SDS011;30298;52.562;13.414;2023-01-01T00:00:58;42.92;;;26.33;;
44588;SDS011;30298;52.562;13.414;2023-01-01T00:03:23;37.13;;;21.48;;
44588;SDS011;30298;52.562;13.414;2023-01-01T00:05:49;33.27;;;20.90;;
44588;SDS011;30298;52.562;13.414;2023-01-01T00:08:14;31.50;;;21.97;;
44588;SDS011;30298;52.562;13.414;2023-01-01T00:10:39;38.15;;;21.15;;
44588;SDS011;30298;52.562;13.414;2023-01-01T00:13:04;44.07;;;25.73;;
44588;SDS011;30298;52.562;13.414;2023-01-01T00:15:30;26.83;;;17.30;;
44588;SDS011;30298;52.562;13.414;2023-01-01T00:17:55;28.10;;;18.23;;
44588;SDS011;30298;52.562;13.414;2023-01-01T00:22:46;29.27;;;16.65;;
44588;SDS011;30298;52.562;13.414;2023-01-01T00:25:12;25.17;;;16.03;;
44588;SDS011;30298;52.562;13.414;2023-01-01T00:30:03;29.35;;;15.05;;
44588;SDS011;30298;52.562;13.414;2023-01-01T00:32:29;18.75;;;12.57;;
44588;SDS011;30298;52.562;13.414;2023-01-01T00:34:54;21.10;;;11.17;;
44588;SDS011;30298;52.562;13.414;2023-01-01T00:37:19;19.97;;;11.10;;
44588;SDS011;30298;52.562;13.414;2023-01-01T00:39:44;18.97;;;11.00;;
44588;SDS011;30298;52.562;13.414;2023-01-01T00:42:10;19.57;;;11.53;;
44588;SDS011;30298;52.562;13.414;2023-01-01T00:44:35;25.53;;;10.07;;
44588;SDS011;30298;52.562;13.414;2023-01-01T00:47:00;14.43;;;8.83;;
44588;SDS011;30298;52.562;13.414;2023-01-01T00:49:25;15.40;;;8.90;;
44588;SDS011;30298;52.562;13.414;2023-01-01T00:51:52;22.50;;;10.13;;
44588;SDS011;30298;52.562;13.414;2023-01-01T00:54:17;12.57;;;6.95;;
44588;SDS011;30298;52.562;13.414;2023-01-01T00:56:42;10.40;;;5.30;;
44588;SDS011;30298;52.562;13.414;2023-01-01T00:59:07;13.00;;;6.83;;
44588;SDS011;30298;52.562;13.414;2023-01-01T01:01:33;12.07;;;6.13;;
44588;SDS011;30298;52.562;13.414;2023-01-01T01:03:58;14.13;;;6.72;;
44588;SDS011;30298;52.562;13.414;2023-01-01T01:06:24;18.83;;;6.43;;
44588;SDS011;30298;52.562;13.414;2023-01-01T01:08:49;14.33;;;6.20;;
44588;SDS011;30298;52.562;13.414;2023-01-01T01:11:22;9.67;;;5.33;;
44588;SDS011;30298;52.562;13.414;2023-01-01T01:13:49;9.80;;;4.75;;
44588;SDS011;30298;52.562;13.414;2023-01-01T01:16:15;9.32;;;4.82;;
44588;SDS011;30298;52.562;13.414;2023-01-01T01:18:41;8.02;;;4.10;;
44588;SDS011;30298;52.562;13.414;2023-01-01T01:21:06;16.00;;;7.50;;
44588;SDS011;30298;52.562;13.414;2023-01-01T01:23:31;9.57;;;3.97;;
44588;SDS011;30298;52.562;13.414;2023-01-01T01:26:10;9.75;;;4.65;;
44588;SDS011;30298;52.562;13.414;2023-01-01T01:28:36;9.05;;;3.78;;
44588;SDS011;30298;52.562;13.414;2023-01-01T01:31:01;13.87;;;3.77;;
44588;SDS011;30298;52.562;13.414;2023-01-01T01:33:26;10.47;;;4.53;;
44588;SDS011;30298;52.562;13.414;2023-01-01T01:35:51;8.57;;;4.17;;
44588;SDS011;30298;52.562;13.414;2023-01-01T01:38:17;8.90;;;4.83;;
44588;SDS011;30298;52.562;13.414;2023-01-01T01:40:42;12.33;;;4.53;;
44588;SDS011;30298;52.562;13.414;2023-01-01T01:43:21;8.30;;;4.40;;
44588;SDS011;30298;52.562;13.414;2023-01-01T01:45:47;6.63;;;4.18;;
44588;SDS011;30298;52.562;13.414;2023-01-01T01:48:12;11.27;;;4.35;;
44588;SDS011;30298;52.562;13.414;2023-01-01T01:50:38;9.98;;;4.20;;
44588;SDS011;30298;52.562;13.414;2023-01-01T01:53:11;7.63;;;4.35;;
44588;SDS011;30298;52.562;13.414;2023-01-01T01:55:40;9.07;;;5.35;;
44588;SDS011;30298;52.562;13.414;2023-01-01T02:00:31;9.57;;;4.83;;
44588;SDS011;30298;52.562;13.414;2023-01-01T02:03:01;7.90;;;4.83;;
44588;SDS011;30298;52.562;13.414;2023-01-01T02:05:28;10.13;;;4.15;;
44588;SDS011;30298;52.562;13.414;2023-01-01T02:07:54;9.98;;;3.88;;
44588;SDS011;30298;52.562;13.414;2023-01-01T02:10:20;10.65;;;4.80;;
44588;SDS011;30298;52.562;13.414;2023-01-01T02:12:46;9.80;;;4.78;;
44588;SDS011;30298;52.562;13.414;2023-01-01T02:15:11;11.23;;;6.80;;
44588;SDS011;30298;52.562;13.414;2023-01-01T02:17:43;8.73;;;5.72;;
44588;SDS011;30298;52.562;13.414;2023-01-01T02:20:14;16.40;;;7.85;;
44588;SDS011;30298;52.562;13.414;2023-01-01T02:30:23;13.02;;;6.15;;
44588;SDS011;30298;52.562;13.414;2023-01-01T02:32:50;19.90;;;8.13;;
44588;SDS011;30298;52.562;13.414;2023-01-01T02:35:17;15.23;;;6.28;;
44588;SDS011;30298;52.562;13.414;2023-01-01T02:38:02;10.32;;;5.38;;
44588;SDS011;30298;52.562;13.414;2023-01-01T02:40:29;13.98;;;4.07;;
44588;SDS011;30298;52.562;13.414;2023-01-01T02:42:54;11.90;;;4.65;;
44588;SDS011;30298;52.562;13.414;2023-01-01T02:45:20;8.30;;;4.13;;
44588;SDS011;30298;52.562;13.414;2023-01-01T02:47:46;8.30;;;4.20;;
44588;SDS011;30298;52.562;13.414;2023-01-01T02:50:29;6.90;;;4.10;;
44588;SDS011;30298;52.562;13.414;2023-01-01T02:55:26;11.20;;;5.40;;
44588;SDS011;30298;52.562;13.414;2023-01-01T02:57:58;8.60;;;4.68;;
44588;SDS011;30298;52.562;13.414;2023-01-01T03:00:46;8.02;;;4.28;;
44588;SDS011;30298;52.562;13.414;2023-01-01T03:11:12;9.45;;;4.72;;
44588;SDS011;30298;52.562;13.414;2023-01-01T03:13:41;8.30;;;4.13;;
44588;SDS011;30298;52.562;13.414;2023-01-01T03:20:59;11.27;;;4.60;;
44588;SDS011;30298;52.562;13.414;2023-01-01T03:23:28;14.15;;;4.53;;
44588;SDS011;30298;52.562;13.414;2023-01-01T03:25:56;8.27;;;3.88;;
44588;SDS011;30298;52.562;13.414;2023-01-01T03:28:31;8.68;;;4.03;;
44588;SDS011;30298;52.562;13.414;2023-01-01T03:30:57;7.78;;;4.00;;
44588;SDS011;30298;52.562;13.414;2023-01-01T03:33:27;8.32;;;4.10;;
44588;SDS011;30298;52.562;13.414;2023-01-01T03:38:39;9.20;;;3.80;;
44588;SDS011;30298;52.562;13.414;2023-01-01T03:42:10;8.32;;;4.03;;
44588;SDS011;30298;52.562;13.414;2023-01-01T03:46:36;11.20;;;3.80;;
44588;SDS011;30298;52.562;13.414;2023-01-01T03:49:01;6.88;;;3.80;;
44588;SDS011;30298;52.562;13.414;2023-01-01T03:53:54;6.50;;;4.70;;
44588;SDS011;30298;52.562;13.414;2023-01-01T03:56:28;7.90;;;3.60;;
44588;SDS011;30298;52.562;13.414;2023-01-01T03:59:08;6.10;;;4.00;;
44588;SDS011;30298;52.562;13.414;2023-01-01T04:01:36;9.32;;;3.90;;
44588;SDS011;30298;52.562;13.414;2023-01-01T04:04:03;7.50;;;3.63;;
44588;SDS011;30298;52.562;13.414;2023-01-01T04:06:29;12.20;;;4.13;;
44588;SDS011;30298;52.562;13.414;2023-01-01T04:08:56;8.60;;;4.05;;
44588;SDS011;30298;52.562;13.414;2023-01-01T04:11:23;8.07;;;3.72;;
44588;SDS011;30298;52.562;13.414;2023-01-01T04:14:08;6.07;;;4.00;;
44588;SDS011;30298;52.562;13.414;2023-01-01T04:16:34;8.10;;;3.77;;
44588;SDS011;30298;52.562;13.414;2023-01-01T04:18:59;8.37;;;3.83;;
44588;SDS011;30298;52.562;13.414;2023-01-01T04:21:24;7.50;;;3.63;;
44588;SDS011;30298;52.562;13.414;2023-01-01T04:23:50;10.93;;;4.13;;
44588;SDS011;30298;52.562;13.414;2023-01-01T04:26:15;8.57;;;3.80;;
44588;SDS011;30298;52.562;13.414;2023-01-01T04:28:40;5.13;;;3.77;;
44588;SDS011;30298;52.562;13.414;2023-01-01T04:31:06;11.85;;;4.22;;
44588;SDS011;30298;52.562;13.414;2023-01-01T04:33:32;8.38;;;3.35;;
44588;SDS011;30298;52.562;13.414;2023-01-01T04:36:01;7.37;;;3.33;;
44588;SDS011;30298;52.562;13.414;2023-01-01T04:38:27;11.98;;;4.20;;
44588;SDS011;30298;52.562;13.414;2023-01-01T04:40:58;11.83;;;4.33;;
44588;SDS011;30298;52.562;13.414;2023-01-01T04:43:23;10.02;;;4.10;;
44588;SDS011;30298;52.562;13.414;2023-01-01T04:45:55;10.60;;;3.97;;
44588;SDS011;30298;52.562;13.414;2023-01-01T04:48:21;5.75;;;3.45;;
44588;SDS011;30298;52.562;13.414;2023-01-01T04:50:52;6.63;;;3.70;;
44588;SDS011;30298;52.562;13.414;2023-01-01T04:53:18;9.50;;;5.00;;
44588;SDS011;30298;52.562;13.414;2023-01-01T04:55:43;8.33;;;4.80;;
44588;SDS011;30298;52.562;13.414;2023-01-01T04:58:08;8.27;;;3.90;;
44588;SDS011;30298;52.562;13.414;2023-01-01T05:00:33;9.50;;;4.03;;
44588;SDS011;30298;52.562;13.414;2023-01-01T05:02:59;10.17;;;4.00;;
44588;SDS011;30298;52.562;13.414;2023-01-01T05:05:24;10.57;;;4.00;;
44588;SDS011;30298;52.562;13.414;2023-01-01T05:07:49;9.95;;;4.65;;
44588;SDS011;30298;52.562;13.414;2023-01-01T05:10:15;8.77;;;3.93;;
44588;SDS011;30298;52.562;13.414;2023-01-01T05:12:40;8.57;;;4.00;;
44588;SDS011;30298;52.562;13.414;2023-01-01T05:15:05;5.80;;;3.80;;
44588;SDS011;30298;52.562;13.414;2023-01-01T05:17:31;9.73;;;3.80;;
44588;SDS011;30298;52.562;13.414;2023-01-01T05:19:56;5.47;;;3.80;;
44588;SDS011;30298;52.562;13.414;2023-01-01T05:22:22;7.63;;;4.07;;
44588;SDS011;30298;52.562;13.414;2023-01-01T05:24:47;7.60;;;3.50;;
44588;SDS011;30298;52.562;13.414;2023-01-01T05:27:12;8.90;;;4.20;;
44588;SDS011;30298;52.562;13.414;2023-01-01T05:29:38;10.53;;;4.40;;
44588;SDS011;30298;52.562;13.414;2023-01-01T05:32:03;8.37;;;3.80;;
44588;SDS011;30298;52.562;13.414;2023-01-01T05:34:28;13.30;;;4.20;;
44588;SDS011;30298;52.562;13.414;2023-01-01T05:36:53;12.37;;;3.90;;
44588;SDS011;30298;52.562;13.414;2023-01-01T05:39:20;9.20;;;3.30;;
44588;SDS011;30298;52.562;13.414;2023-01-01T05:41:45;5.07;;;3.13;;
44588;SDS011;30298;52.562;13.414;2023-01-01T05:44:10;8.90;;;3.67;;
44588;SDS011;30298;52.562;13.414;2023-01-01T05:46:35;9.83;;;3.80;;
44588;SDS011;30298;52.562;13.414;2023-01-01T05:49:01;6.87;;;4.40;;
44588;SDS011;30298;52.562;13.414;2023-01-01T05:51:26;5.97;;;3.30;;
44588;SDS011;30298;52.562;13.414;2023-01-01T05:53:53;6.32;;;3.45;;
44588;SDS011;30298;52.562;13.414;2023-01-01T05:56:18;9.77;;;4.53;;
44588;SDS011;30298;52.562;13.414;2023-01-01T05:58:44;6.43;;;3.07;;
44588;SDS011;30298;52.562;13.414;2023-01-01T06:01:10;4.90;;;3.43;;
44588;SDS011;30298;52.562;13.414;2023-01-01T06:03:37;7.03;;;3.40;;
44588;SDS011;30298;52.562;13.414;2023-01-01T06:06:03;7.05;;;3.53;;
44588;SDS011;30298;52.562;13.414;2023-01-01T06:08:28;6.07;;;3.47;;
44588;SDS011;30298;52.562;13.414;2023-01-01T06:11:00;6.07;;;3.37;;
44588;SDS011;30298;52.562;13.414;2023-01-01T06:13:26;8.63;;;3.67;;
44588;SDS011;30298;52.562;13.414;2023-01-01T06:15:52;7.73;;;3.00;;
44588;SDS011;30298;52.562;13.414;2023-01-01T06:18:18;7.78;;;3.20;;
44588;SDS011;30298;52.562;13.414;2023-01-01T06:20:43;8.93;;;3.50;;
44588;SDS011;30298;52.562;13.414;2023-01-01T06:23:08;8.93;;;2.83;;
44588;SDS011;30298;52.562;13.414;2023-01-01T06:25:33;6.73;;;2.93;;
44588;SDS011;30298;52.562;13.414;2023-01-01T06:27:58;5.70;;;2.63;;
44588;SDS011;30298;52.562;13.414;2023-01-01T06:30:24;4.23;;;2.90;;
44588;SDS011;30298;52.562;13.414;2023-01-01T06:32:49;7.87;;;2.73;;
44588;SDS011;30298;52.562;13.414;2023-01-01T06:35:14;7.80;;;3.30;;
44588;SDS011;30298;52.562;13.414;2023-01-01T06:37:40;6.67;;;3.03;;
44588;SDS011;30298;52.562;13.414;2023-01-01T06:40:05;5.57;;;3.17;;
44588;SDS011;30298;52.562;13.414;2023-01-01T06:42:30;6.53;;;3.25;;
44588;SDS011;30298;52.562;13.414;2023-01-01T06:44:56;4.53;;;2.87;;
44588;SDS011;30298;52.562;13.414;2023-01-01T06:47:21;7.03;;;3.50;;
44588;SDS011;30298;52.562;13.414;2023-01-01T06:49:46;6.77;;;3.07;;
44588;SDS011;30298;52.562;13.414;2023-01-01T06:52:11;9.27;;;3.20;;
44588;SDS011;30298;52.562;13.414;2023-01-01T06:54:37;15.85;;;4.45;;
44588;SDS011;30298;52.562;13.414;2023-01-01T06:57:02;5.57;;;2.93;;
44588;SDS011;30298;52.562;13.414;2023-01-01T06:59:27;6.40;;;3.23;;
44588;SDS011;30298;52.562;13.414;2023-01-01T07:01:52;7.37;;;3.33;;
44588;SDS011;30298;52.562;13.414;2023-01-01T07:04:18;6.17;;;3.47;;
44588;SDS011;30298;52.562;13.414;2023-01-01T07:06:43;7.87;;;3.10;;
44588;SDS011;30298;52.562;13.414;2023-01-01T07:09:08;6.77;;;3.13;;
44588;SDS011;30298;52.562;13.414;2023-01-01T07:11:34;5.90;;;3.10;;
44588;SDS011;30298;52.562;13.414;2023-01-01T07:13:59;6.88;;;2.72;;
44588;SDS011;30298;52.562;13.414;2023-01-01T07:16:25;6.50;;;3.40;;
44588;SDS011;30298;52.562;13.414;2023-01-01T07:18:50;5.82;;;3.13;;
44588;SDS011;30298;52.562;13.414;2023-01-01T07:21:32;6.20;;;3.47;;
44588;SDS011;30298;52.562;13.414;2023-01-01T07:24:01;6.40;;;3.10;;
44588;SDS011;30298;52.562;13.414;2023-01-01T07:26:27;7.30;;;2.78;;
44588;SDS011;30298;52.562;13.414;2023-01-01T07:28:53;5.95;;;2.97;;
44588;SDS011;30298;52.562;13.414;2023-01-01T07:31:18;4.70;;;2.50;;
44588;SDS011;30298;52.562;13.414;2023-01-01T07:33:43;7.27;;;3.37;;
44588;SDS011;30298;52.562;13.414;2023-01-01T07:36:09;5.87;;;3.30;;
44588;SDS011;30298;52.562;13.414;2023-01-01T07:38:34;4.95;;;3.10;;
44588;SDS011;30298;52.562;13.414;2023-01-01T07:40:59;6.60;;;3.07;;
44588;SDS011;30298;52.562;13.414;2023-01-01T07:43:24;6.20;;;3.50;;
44588;SDS011;30298;52.562;13.414;2023-01-01T07:45:50;7.63;;;3.70;;
44588;SDS011;30298;52.562;13.414;2023-01-01T07:48:15;6.07;;;3.50;;
44588;SDS011;30298;52.562;13.414;2023-01-01T07:50:41;10.03;;;3.97;;
44588;SDS011;30298;52.562;13.414;2023-01-01T07:53:06;13.13;;;3.55;;
44588;SDS011;30298;52.562;13.414;2023-01-01T07:55:31;9.00;;;3.93;;
44588;SDS011;30298;52.562;13.414;2023-01-01T08:00:23;8.93;;;3.60;;
44588;SDS011;30298;52.562;13.414;2023-01-01T08:02:48;9.20;;;4.30;;
44588;SDS011;30298;52.562;13.414;2023-01-01T08:05:14;6.00;;;3.77;;
44588;SDS011;30298;52.562;13.414;2023-01-01T08:07:39;9.60;;;3.40;;
44588;SDS011;30298;52.562;13.414;2023-01-01T08:10:06;5.32;;;3.47;;
44588;SDS011;30298;52.562;13.414;2023-01-01T08:12:31;7.75;;;3.60;;
44588;SDS011;30298;52.562;13.414;2023-01-01T08:14:57;5.35;;;3.47;;
44588;SDS011;30298;52.562;13.414;2023-01-01T08:17:22;7.47;;;3.67;;
44588;SDS011;30298;52.562;13.414;2023-01-01T08:19:47;7.27;;;4.10;;
44588;SDS011;30298;52.562;13.414;2023-01-01T08:22:13;6.53;;;3.70;;
44588;SDS011;30298;52.562;13.414;2023-01-01T08:24:39;8.60;;;3.80;;
44588;SDS011;30298;52.562;13.414;2023-01-01T08:27:04;7.80;;;3.93;;
44588;SDS011;30298;52.562;13.414;2023-01-01T08:29:29;8.53;;;4.00;;
44588;SDS011;30298;52.562;13.414;2023-01-01T08:31:54;7.03;;;4.23;;
44588;SDS011;30298;52.562;13.414;2023-01-01T08:34:20;8.07;;;3.87;;
44588;SDS011;30298;52.562;13.414;2023-01-01T08:36:45;7.37;;;3.87;;
44588;SDS011;30298;52.562;13.414;2023-01-01T08:39:10;13.23;;;3.43;;
44588;SDS011;30298;52.562;13.414;2023-01-01T08:41:35;7.60;;;3.70;;
44588;SDS011;30298;52.562;13.414;2023-01-01T08:44:00;9.47;;;4.83;;
44588;SDS011;30298;52.562;13.414;2023-01-01T08:46:26;8.13;;;3.63;;
44588;SDS011;30298;52.562;13.414;2023-01-01T08:48:51;7.90;;;3.97;;
44588;SDS011;30298;52.562;13.414;2023-01-01T08:51:16;5.27;;;3.30;;
44588;SDS011;30298;52.562;13.414;2023-01-01T08:53:42;5.95;;;3.65;;
44588;SDS011;30298;52.562;13.414;2023-01-01T08:56:08;9.80;;;4.00;;
44588;SDS011;30298;52.562;13.414;2023-01-01T08:58:35;8.65;;;3.95;;
44588;SDS011;30298;52.562;13.414;2023-01-01T09:01:00;7.57;;;3.90;;
44588;SDS011;30298;52.562;13.414;2023-01-01T09:03:25;7.17;;;4.60;;
44588;SDS011;30298;52.562;13.414;2023-01-01T09:05:51;5.37;;;3.60;;
44588;SDS011;30298;52.562;13.414;2023-01-01T09:08:16;10.95;;;5.65;;
44588;SDS011;30298;52.562;13.414;2023-01-01T09:10:42;10.05;;;4.18;;
44588;SDS011;30298;52.562;13.414;2023-01-01T09:13:08;8.10;;;3.80;;
44588;SDS011;30298;52.562;13.414;2023-01-01T09:15:33;7.45;;;3.83;;
44588;SDS011;30298;52.562;13.414;2023-01-01T09:17:59;10.10;;;3.80;;
44588;SDS011;30298;52.562;13.414;2023-01-01T09:20:24;7.10;;;4.13;;
44588;SDS011;30298;52.562;13.414;2023-01-01T09:22:49;5.70;;;4.23;;
44588;SDS011;30298;52.562;13.414;2023-01-01T09:25:14;8.93;;;4.63;;
44588;SDS011;30298;52.562;13.414;2023-01-01T09:27:40;8.13;;;4.53;;
44588;SDS011;30298;52.562;13.414;2023-01-01T09:30:05;6.97;;;3.70;;
44588;SDS011;30298;52.562;13.414;2023-01-01T09:32:31;6.57;;;3.50;;
44588;SDS011;30298;52.562;13.414;2023-01-01T09:34:56;7.50;;;3.87;;
44588;SDS011;30298;52.562;13.414;2023-01-01T09:37:22;5.72;;;3.53;;
44588;SDS011;30298;52.562;13.414;2023-01-01T09:39:47;8.93;;;3.55;;
44588;SDS011;30298;52.562;13.414;2023-01-01T09:49:51;8.27;;;4.10;;
44588;SDS011;30298;52.562;13.414;2023-01-01T09:52:17;5.78;;;3.30;;
44588;SDS011;30298;52.562;13.414;2023-01-01T09:54:44;8.25;;;3.72;;
44588;SDS011;30298;52.562;13.414;2023-01-01T09:57:12;6.72;;;3.58;;
44588;SDS011;30298;52.562;13.414;2023-01-01T09:59:37;5.72;;;3.40;;
44588;SDS011;30298;52.562;13.414;2023-01-01T10:04:56;8.00;;;3.45;;
44588;SDS011;30298;52.562;13.414;2023-01-01T10:12:17;8.17;;;3.50;;
44588;SDS011;30298;52.562;13.414;2023-01-01T10:14:46;5.25;;;3.50;;
44588;SDS011;30298;52.562;13.414;2023-01-01T10:25:26;6.10;;;3.75;;
44588;SDS011;30298;52.562;13.414;2023-01-01T10:27:53;6.63;;;3.35;;
44588;SDS011;30298;52.562;13.414;2023-01-01T10:30:21;8.00;;;3.60;;
44588;SDS011;30298;52.562;13.414;2023-01-01T10:32:47;6.07;;;3.10;;
44588;SDS011;30298;52.562;13.414;2023-01-01T10:35:17;6.88;;;3.28;;
44588;SDS011;30298;52.562;13.414;2023-01-01T10:37:43;9.88;;;3.83;;
44588;SDS011;30298;52.562;13.414;2023-01-01T10:40:18;5.68;;;3.13;;
44588;SDS011;30298;52.562;13.414;2023-01-01T10:42:49;7.75;;;3.30;;
44588;SDS011;30298;52.562;13.414;2023-01-01T10:45:15;6.13;;;3.50;;
44588;SDS011;30298;52.562;13.414;2023-01-01T10:48:07;9.75;;;3.30;;
44588;SDS011;30298;52.562;13.414;2023-01-01T10:50:39;7.45;;;3.10;;
44588;SDS011;30298;52.562;13.414;2023-01-01T10:53:04;4.80;;;3.03;;
44588;SDS011;30298;52.562;13.414;2023-01-01T10:55:30;4.37;;;2.87;;
44588;SDS011;30298;52.562;13.414;2023-01-01T10:57:55;6.80;;;4.10;;
44588;SDS011;30298;52.562;13.414;2023-01-01T11:02:46;6.75;;;3.42;;
44588;SDS011;30298;52.562;13.414;2023-01-01T11:05:16;17.47;;;5.40;;
44588;SDS011;30298;52.562;13.414;2023-01-01T11:07:41;5.15;;;3.63;;
44588;SDS011;30298;52.562;13.414;2023-01-01T11:10:11;4.85;;;2.65;;
44588;SDS011;30298;52.562;13.414;2023-01-01T11:12:38;6.75;;;3.20;;
44588;SDS011;30298;52.562;13.414;2023-01-01T11:15:04;6.28;;;3.20;;
44588;SDS011;30298;52.562;13.414;2023-01-01T11:17:32;6.60;;;3.85;;
44588;SDS011;30298;52.562;13.414;2023-01-01T11:19:58;5.88;;;2.70;;
44588;SDS011;30298;52.562;13.414;2023-01-01T11:25:15;5.93;;;3.22;;
44588;SDS011;30298;52.562;13.414;2023-01-01T11:27:41;9.80;;;2.78;;
44588;SDS011;30298;52.562;13.414;2023-01-01T11:30:40;7.60;;;3.00;;
44588;SDS011;30298;52.562;13.414;2023-01-01T11:33:00;5.72;;;2.75;;
44588;SDS011;30298;52.562;13.414;2023-01-01T11:35:26;5.90;;;2.75;;
44588;SDS011;30298;52.562;13.414;2023-01-01T11:40:21;6.50;;;2.80;;
44588;SDS011;30298;52.562;13.414;2023-01-01T11:42:51;4.88;;;2.88;;
44588;SDS011;30298;52.562;13.414;2023-01-01T11:45:21;4.15;;;2.70;;
44588;SDS011;30298;52.562;13.414;2023-01-01T11:48:10;6.10;;;2.55;;
44588;SDS011;30298;52.562;13.414;2023-01-01T11:50:35;6.30;;;3.40;;
44588;SDS011;30298;52.562;13.414;2023-01-01T12:00:50;4.03;;;2.60;;
44588;SDS011;30298;52.562;13.414;2023-01-01T12:05:48;5.22;;;3.58;;
44588;SDS011;30298;52.562;13.414;2023-01-01T12:08:20;5.18;;;2.45;;
44588;SDS011;30298;52.562;13.414;2023-01-01T12:10:54;5.05;;;3.20;;
44588;SDS011;30298;52.562;13.414;2023-01-01T12:13:24;6.25;;;2.70;;
44588;SDS011;30298;52.562;13.414;2023-01-01T12:18:32;9.48;;;2.88;;
44588;SDS011;30298;52.562;13.414;2023-01-01T12:23:24;5.00;;;2.70;;
44588;SDS011;30298;52.562;13.414;2023-01-01T12:25:51;5.45;;;3.03;;
44588;SDS011;30298;52.562;13.414;2023-01-01T12:31:06;5.90;;;3.03;;
44588;SDS011;30298;52.562;13.414;2023-01-01T12:38:36;4.80;;;2.45;;
44588;SDS011;30298;52.562;13.414;2023-01-01T12:56:20;7.50;;;3.05;;
44588;SDS011;30298;52.562;13.414;2023-01-01T12:58:49;6.43;;;2.75;;
44588;SDS011;30298;52.562;13.414;2023-01-01T13:03:49;4.55;;;2.63;;
44588;SDS011;30298;52.562;13.414;2023-01-01T13:06:16;8.00;;;3.13;;
44588;SDS011;30298;52.562;13.414;2023-01-01T13:08:42;8.18;;;2.95;;
44588;SDS011;30298;52.562;13.414;2023-01-01T13:13:33;6.15;;;2.78;;
44588;SDS011;30298;52.562;13.414;2023-01-01T13:15:59;8.75;;;2.35;;
44588;SDS011;30298;52.562;13.414;2023-01-01T13:18:25;4.60;;;2.40;;
44588;SDS011;30298;52.562;13.414;2023-01-01T13:20:55;8.00;;;3.10;;
44588;SDS011;30298;52.562;13.414;2023-01-01T13:28:39;5.88;;;2.47;;
44588;SDS011;30298;52.562;13.414;2023-01-01T13:31:04;6.57;;;2.80;;
44588;SDS011;30298;52.562;13.414;2023-01-01T13:33:30;6.57;;;3.00;;
44588;SDS011;30298;52.562;13.414;2023-01-01T13:43:49;5.55;;;2.95;;
44588;SDS011;30298;52.562;13.414;2023-01-01T13:46:15;4.88;;;2.50;;
44588;SDS011;30298;52.562;13.414;2023-01-01T13:48:48;6.93;;;3.00;;
44588;SDS011;30298;52.562;13.414;2023-01-01T13:56:57;6.75;;;2.90;;
44588;SDS011;30298;52.562;13.414;2023-01-01T13:59:33;3.95;;;2.63;;
44588;SDS011;30298;52.562;13.414;2023-01-01T14:02:22;9.40;;;3.45;;
44588;SDS011;30298;52.562;13.414;2023-01-01T14:04:53;9.52;;;2.75;;
44588;SDS011;30298;52.562;13.414;2023-01-01T14:09:45;5.00;;;2.95;;
44588;SDS011;30298;52.562;13.414;2023-01-01T14:12:17;4.33;;;2.80;;
44588;SDS011;30298;52.562;13.414;2023-01-01T14:14:43;10.48;;;2.78;;
44588;SDS011;30298;52.562;13.414;2023-01-01T14:17:08;7.22;;;2.92;;
44588;SDS011;30298;52.562;13.414;2023-01-01T14:19:35;5.68;;;2.95;;
44588;SDS011;30298;52.562;13.414;2023-01-01T14:22:05;5.88;;;2.72;;
44588;SDS011;30298;52.562;13.414;2023-01-01T14:24:30;8.82;;;3.75;;
44588;SDS011;30298;52.562;13.414;2023-01-01T14:26:56;5.05;;;3.13;;
44588;SDS011;30298;52.562;13.414;2023-01-01T14:29:25;5.50;;;3.20;;
44588;SDS011;30298;52.562;13.414;2023-01-01T14:31:52;6.47;;;2.80;;
44588;SDS011;30298;52.562;13.414;2023-01-01T14:36:52;6.43;;;3.33;;
44588;SDS011;30298;52.562;13.414;2023-01-01T14:39:25;7.78;;;3.00;;
44588;SDS011;30298;52.562;13.414;2023-01-01T14:41:50;9.20;;;2.97;;
44588;SDS011;30298;52.562;13.414;2023-01-01T14:44:17;6.95;;;3.15;;
44588;SDS011;30298;52.562;13.414;2023-01-01T14:46:47;10.85;;;3.80;;
44588;SDS011;30298;52.562;13.414;2023-01-01T14:49:46;7.63;;;2.83;;
44588;SDS011;30298;52.562;13.414;2023-01-01T14:52:06;8.77;;;4.07;;
44588;SDS011;30298;52.562;13.414;2023-01-01T14:54:34;7.20;;;3.28;;
44588;SDS011;30298;52.562;13.414;2023-01-01T14:57:00;11.60;;;4.18;;
44588;SDS011;30298;52.562;13.414;2023-01-01T14:59:26;6.28;;;3.15;;
44588;SDS011;30298;52.562;13.414;2023-01-01T15:01:59;9.55;;;3.55;;
44588;SDS011;30298;52.562;13.414;2023-01-01T15:04:25;9.02;;;3.40;;
44588;SDS011;30298;52.562;13.414;2023-01-01T15:09:19;5.95;;;2.92;;
44588;SDS011;30298;52.562;13.414;2023-01-01T15:11:44;10.10;;;4.17;;
44588;SDS011;30298;52.562;13.414;2023-01-01T15:17:03;7.95;;;3.60;;
44588;SDS011;30298;52.562;13.414;2023-01-01T15:19:30;8.23;;;3.25;;
44588;SDS011;30298;52.562;13.414;2023-01-01T15:21:55;8.55;;;3.40;;
44588;SDS011;30298;52.562;13.414;2023-01-01T15:24:21;9.65;;;4.28;;
44588;SDS011;30298;52.562;13.414;2023-01-01T15:29:16;7.70;;;3.90;;
44588;SDS011;30298;52.562;13.414;2023-01-01T15:31:47;7.40;;;4.05;;
44588;SDS011;30298;52.562;13.414;2023-01-01T15:34:22;10.80;;;4.50;;
44588;SDS011;30298;52.562;13.414;2023-01-01T15:36:52;8.32;;;4.13;;
44588;SDS011;30298;52.562;13.414;2023-01-01T15:39:18;11.32;;;4.03;;
44588;SDS011;30298;52.562;13.414;2023-01-01T15:41:50;7.97;;;3.78;;
44588;SDS011;30298;52.562;13.414;2023-01-01T15:44:26;8.60;;;4.78;;
44588;SDS011;30298;52.562;13.414;2023-01-01T15:46:52;13.63;;;8.05;;
44588;SDS011;30298;52.562;13.414;2023-01-01T15:49:27;11.95;;;5.22;;
44588;SDS011;30298;52.562;13.414;2023-01-01T15:51:56;7.78;;;3.60;;
44588;SDS011;30298;52.562;13.414;2023-01-01T15:54:25;7.53;;;4.20;;
44588;SDS011;30298;52.562;13.414;2023-01-01T15:56:51;10.13;;;3.97;;
44588;SDS011;30298;52.562;13.414;2023-01-01T15:59:24;12.85;;;4.53;;
44588;SDS011;30298;52.562;13.414;2023-01-01T16:01:50;10.25;;;4.13;;
44588;SDS011;30298;52.562;13.414;2023-01-01T16:04:16;9.53;;;3.87;;
44588;SDS011;30298;52.562;13.414;2023-01-01T16:06:46;8.38;;;5.03;;
44588;SDS011;30298;52.562;13.414;2023-01-01T16:09:12;8.05;;;4.70;;
44588;SDS011;30298;52.562;13.414;2023-01-01T16:11:38;10.23;;;4.43;;
44588;SDS011;30298;52.562;13.414;2023-01-01T16:14:03;13.30;;;5.13;;
44588;SDS011;30298;52.562;13.414;2023-01-01T16:16:29;5.35;;;3.50;;
44588;SDS011;30298;52.562;13.414;2023-01-01T16:18:54;7.22;;;4.20;;
44588;SDS011;30298;52.562;13.414;2023-01-01T16:21:21;7.75;;;4.20;;
44588;SDS011;30298;52.562;13.414;2023-01-01T16:23:47;9.63;;;4.65;;
44588;SDS011;30298;52.562;13.414;2023-01-01T16:26:13;9.27;;;4.60;;
44588;SDS011;30298;52.562;13.414;2023-01-01T16:28:38;10.93;;;4.73;;
44588;SDS011;30298;52.562;13.414;2023-01-01T16:31:03;13.33;;;5.23;;
44588;SDS011;30298;52.562;13.414;2023-01-01T16:33:29;8.30;;;4.63;;
44588;SDS011;30298;52.562;13.414;2023-01-01T16:35:54;8.47;;;4.60;;
44588;SDS011;30298;52.562;13.414;2023-01-01T16:38:19;11.07;;;4.20;;
44588;SDS011;30298;52.562;13.414;2023-01-01T16:40:44;10.17;;;4.60;;
44588;SDS011;30298;52.562;13.414;2023-01-01T16:43:17;12.57;;;4.60;;
44588;SDS011;30298;52.562;13.414;2023-01-01T16:45:43;12.43;;;6.80;;
44588;SDS011;30298;52.562;13.414;2023-01-01T16:48:08;6.88;;;4.50;;
44588;SDS011;30298;52.562;13.414;2023-01-01T16:50:34;10.53;;;5.17;;
44588;SDS011;30298;52.562;13.414;2023-01-01T16:52:59;12.93;;;4.97;;
44588;SDS011;30298;52.562;13.414;2023-01-01T16:55:24;9.30;;;5.70;;
44588;SDS011;30298;52.562;13.414;2023-01-01T16:57:49;13.43;;;6.87;;